sensor_id;sensor_type;location;lat;lon;timestamp;temperature;humidity
47310;DHT22;33046;52.270;6.832;2022-12-07T00:01:36;7.20;99.90
47310;DHT22;33046;52.270;6.832;2022-12-07T00:03:44;7.10;99.90
47310;DHT22;33046;52.270;6.832;2022-12-07T00:05:52;7.10;99.90
47310;DHT22;33046;52.270;6.832;2022-12-07T00:07:58;7.10;99.90
47310;DHT22;33046;52.270;6.832;2022-12-07T00:10:07;7.10;99.90
47310;DHT22;33046;52.270;6.832;2022-12-07T00:12:14;7.10;99.90
47310;DHT22;33046;52.270;6.832;2022-12-07T00:14:21;7.10;99.90
47310;DHT22;33046;52.270;6.832;2022-12-07T00:16:30;7.10;99.90
47310;DHT22;33046;52.270;6.832;2022-12-07T00:18:38;7.10;99.90
47310;DHT22;33046;52.270;6.832;2022-12-07T00:20:44;7.10;99.90
47310;DHT22;33046;52.270;6.832;2022-12-07T00:22:51;7.00;99.90
47310;DHT22;33046;52.270;6.832;2022-12-07T00:24:58;7.00;99.90
47310;DHT22;33046;52.270;6.832;2022-12-07T00:27:06;7.00;99.90
47310;DHT22;33046;52.270;6.832;2022-12-07T00:29:16;7.00;99.90
47310;DHT22;33046;52.270;6.832;2022-12-07T00:31:25;7.00;99.90
47310;DHT22;33046;52.270;6.832;2022-12-07T00:33:32;7.00;99.90
47310;DHT22;33046;52.270;6.832;2022-12-07T00:35:39;7.00;99.90
47310;DHT22;33046;52.270;6.832;2022-12-07T00:37:46;7.00;99.90
47310;DHT22;33046;52.270;6.832;2022-12-07T00:39:53;7.00;99.90
47310;DHT22;33046;52.270;6.832;2022-12-07T00:41:59;7.00;99.90
47310;DHT22;33046;52.270;6.832;2022-12-07T00:44:08;6.90;99.90
47310;DHT22;33046;52.270;6.832;2022-12-07T00:46:15;7.00;99.90
47310;DHT22;33046;52.270;6.832;2022-12-07T00:48:22;6.90;99.90
47310;DHT22;33046;52.270;6.832;2022-12-07T00:50:29;6.90;99.90
47310;DHT22;33046;52.270;6.832;2022-12-07T00:52:36;6.90;99.90
47310;DHT22;33046;52.270;6.832;2022-12-07T00:54:43;6.90;99.90
47310;DHT22;33046;52.270;6.832;2022-12-07T00:56:50;6.90;99.90
47310;DHT22;33046;52.270;6.832;2022-12-07T00:58:58;6.90;99.90
47310;DHT22;33046;52.270;6.832;2022-12-07T01:01:07;6.80;99.90
47310;DHT22;33046;52.270;6.832;2022-12-07T01:03:15;6.80;99.90
47310;DHT22;33046;52.270;6.832;2022-12-07T01:05:23;6.80;99.90
47310;DHT22;33046;52.270;6.832;2022-12-07T01:07:29;6.80;99.90
47310;DHT22;33046;52.270;6.832;2022-12-07T01:09:36;6.80;99.90
47310;DHT22;33046;52.270;6.832;2022-12-07T01:11:43;6.80;99.90
47310;DHT22;33046;52.270;6.832;2022-12-07T01:13:50;6.80;99.90
47310;DHT22;33046;52.270;6.832;2022-12-07T01:15:59;6.70;99.90
47310;DHT22;33046;52.270;6.832;2022-12-07T01:18:07;6.70;99.90
47310;DHT22;33046;52.270;6.832;2022-12-07T01:20:14;6.70;99.90
47310;DHT22;33046;52.270;6.832;2022-12-07T01:22:21;6.70;99.90
47310;DHT22;33046;52.270;6.832;2022-12-07T01:24:28;6.70;99.90
47310;DHT22;33046;52.270;6.832;2022-12-07T01:26:35;6.70;99.90
47310;DHT22;33046;52.270;6.832;2022-12-07T01:28:42;6.70;99.90
47310;DHT22;33046;52.270;6.832;2022-12-07T01:30:55;6.70;99.90
47310;DHT22;33046;52.270;6.832;2022-12-07T01:33:02;6.60;99.90
47310;DHT22;33046;52.270;6.832;2022-12-07T01:35:10;6.70;99.90
47310;DHT22;33046;52.270;6.832;2022-12-07T01:37:17;6.60;99.90
47310;DHT22;33046;52.270;6.832;2022-12-07T01:39:24;6.60;99.90
47310;DHT22;33046;52.270;6.832;2022-12-07T01:41:34;6.60;99.90
47310;DHT22;33046;52.270;6.832;2022-12-07T01:44:09;6.60;99.90
47310;DHT22;33046;52.270;6.832;2022-12-07T01:46:16;6.60;99.90
47310;DHT22;33046;52.270;6.832;2022-12-07T01:48:27;6.60;99.90
47310;DHT22;33046;52.270;6.832;2022-12-07T01:50:35;6.60;99.90
47310;DHT22;33046;52.270;6.832;2022-12-07T01:52:44;6.60;99.90
47310;DHT22;33046;52.270;6.832;2022-12-07T01:54:55;6.60;99.90
47310;DHT22;33046;52.270;6.832;2022-12-07T01:57:04;6.60;99.90
47310;DHT22;33046;52.270;6.832;2022-12-07T01:59:13;6.50;99.90
47310;DHT22;33046;52.270;6.832;2022-12-07T02:01:21;6.50;99.90
47310;DHT22;33046;52.270;6.832;2022-12-07T02:03:32;6.50;99.90
47310;DHT22;33046;52.270;6.832;2022-12-07T02:05:43;6.50;99.90
47310;DHT22;33046;52.270;6.832;2022-12-07T02:07:51;6.60;99.90
47310;DHT22;33046;52.270;6.832;2022-12-07T02:10:12;6.50;99.90
47310;DHT22;33046;52.270;6.832;2022-12-07T02:12:20;6.50;99.90
47310;DHT22;33046;52.270;6.832;2022-12-07T02:14:27;6.50;99.90
47310;DHT22;33046;52.270;6.832;2022-12-07T02:16:42;6.50;99.90
47310;DHT22;33046;52.270;6.832;2022-12-07T02:19:09;6.50;99.90
47310;DHT22;33046;52.270;6.832;2022-12-07T02:21:27;6.50;99.90
47310;DHT22;33046;52.270;6.832;2022-12-07T02:23:48;6.40;99.90
47310;DHT22;33046;52.270;6.832;2022-12-07T02:26:12;6.40;99.90
47310;DHT22;33046;52.270;6.832;2022-12-07T02:28:28;6.50;99.90
47310;DHT22;33046;52.270;6.832;2022-12-07T02:30:39;6.40;99.90
47310;DHT22;33046;52.270;6.832;2022-12-07T02:32:53;6.40;99.90
47310;DHT22;33046;52.270;6.832;2022-12-07T02:35:05;6.40;99.90
47310;DHT22;33046;52.270;6.832;2022-12-07T02:37:19;6.40;99.90
47310;DHT22;33046;52.270;6.832;2022-12-07T02:39:37;6.40;99.90
47310;DHT22;33046;52.270;6.832;2022-12-07T02:41:49;6.40;99.90
47310;DHT22;33046;52.270;6.832;2022-12-07T02:44:00;6.40;99.90
47310;DHT22;33046;52.270;6.832;2022-12-07T02:46:13;6.40;99.90
47310;DHT22;33046;52.270;6.832;2022-12-07T02:48:21;6.40;99.90
47310;DHT22;33046;52.270;6.832;2022-12-07T02:50:28;6.40;99.90
47310;DHT22;33046;52.270;6.832;2022-12-07T02:52:35;6.40;99.90
47310;DHT22;33046;52.270;6.832;2022-12-07T02:54:41;6.40;99.90
47310;DHT22;33046;52.270;6.832;2022-12-07T02:56:50;6.40;99.90
47310;DHT22;33046;52.270;6.832;2022-12-07T02:59:07;6.40;99.90
47310;DHT22;33046;52.270;6.832;2022-12-07T03:01:28;6.40;99.90
47310;DHT22;33046;52.270;6.832;2022-12-07T03:03:40;6.40;99.90
47310;DHT22;33046;52.270;6.832;2022-12-07T03:06:04;6.40;99.90
47310;DHT22;33046;52.270;6.832;2022-12-07T03:08:18;6.40;99.90
47310;DHT22;33046;52.270;6.832;2022-12-07T03:10:33;6.40;99.90
47310;DHT22;33046;52.270;6.832;2022-12-07T03:12:45;6.40;99.90
47310;DHT22;33046;52.270;6.832;2022-12-07T03:14:56;6.40;99.90
47310;DHT22;33046;52.270;6.832;2022-12-07T03:17:10;6.40;99.90
47310;DHT22;33046;52.270;6.832;2022-12-07T03:19:19;6.40;99.90
47310;DHT22;33046;52.270;6.832;2022-12-07T03:21:31;6.40;99.90
47310;DHT22;33046;52.270;6.832;2022-12-07T03:23:41;6.40;99.90
47310;DHT22;33046;52.270;6.832;2022-12-07T03:25:50;6.40;99.90
47310;DHT22;33046;52.270;6.832;2022-12-07T03:28:03;6.40;99.90
47310;DHT22;33046;52.270;6.832;2022-12-07T03:30:16;6.40;99.90
47310;DHT22;33046;52.270;6.832;2022-12-07T03:32:27;6.40;99.90
47310;DHT22;33046;52.270;6.832;2022-12-07T03:34:40;6.40;99.90
47310;DHT22;33046;52.270;6.832;2022-12-07T03:36:54;6.40;99.90
47310;DHT22;33046;52.270;6.832;2022-12-07T03:39:11;6.40;99.90
47310;DHT22;33046;52.270;6.832;2022-12-07T03:41:23;6.30;99.90
47310;DHT22;33046;52.270;6.832;2022-12-07T03:43:31;6.30;99.90
47310;DHT22;33046;52.270;6.832;2022-12-07T03:45:40;6.30;99.90
47310;DHT22;33046;52.270;6.832;2022-12-07T03:47:53;6.30;99.90
47310;DHT22;33046;52.270;6.832;2022-12-07T03:50:07;6.30;99.90
47310;DHT22;33046;52.270;6.832;2022-12-07T03:52:17;6.30;99.90
47310;DHT22;33046;52.270;6.832;2022-12-07T03:54:29;6.30;99.90
47310;DHT22;33046;52.270;6.832;2022-12-07T03:56:39;6.30;99.90
47310;DHT22;33046;52.270;6.832;2022-12-07T03:58:46;6.30;99.90
47310;DHT22;33046;52.270;6.832;2022-12-07T04:00:53;6.30;99.90
47310;DHT22;33046;52.270;6.832;2022-12-07T04:03:01;6.30;99.90
47310;DHT22;33046;52.270;6.832;2022-12-07T04:05:09;6.30;99.90
47310;DHT22;33046;52.270;6.832;2022-12-07T04:07:16;6.30;99.90
47310;DHT22;33046;52.270;6.832;2022-12-07T04:09:23;6.30;99.90
47310;DHT22;33046;52.270;6.832;2022-12-07T04:11:30;6.20;99.90
47310;DHT22;33046;52.270;6.832;2022-12-07T04:13:37;6.20;99.90
47310;DHT22;33046;52.270;6.832;2022-12-07T04:15:43;6.20;99.90
47310;DHT22;33046;52.270;6.832;2022-12-07T04:17:51;6.20;99.90
47310;DHT22;33046;52.270;6.832;2022-12-07T04:19:59;6.20;99.90
47310;DHT22;33046;52.270;6.832;2022-12-07T04:22:06;6.20;99.90
47310;DHT22;33046;52.270;6.832;2022-12-07T04:24:14;6.20;99.90
47310;DHT22;33046;52.270;6.832;2022-12-07T04:26:21;6.20;99.90
47310;DHT22;33046;52.270;6.832;2022-12-07T04:28:28;6.20;99.90
47310;DHT22;33046;52.270;6.832;2022-12-07T04:30:35;6.20;99.90
47310;DHT22;33046;52.270;6.832;2022-12-07T04:32:41;6.20;99.90
47310;DHT22;33046;52.270;6.832;2022-12-07T04:34:48;6.20;99.90
47310;DHT22;33046;52.270;6.832;2022-12-07T04:36:59;6.20;99.90
47310;DHT22;33046;52.270;6.832;2022-12-07T04:39:07;6.20;99.90
47310;DHT22;33046;52.270;6.832;2022-12-07T04:41:14;6.20;99.90
47310;DHT22;33046;52.270;6.832;2022-12-07T04:43:21;6.30;99.90
47310;DHT22;33046;52.270;6.832;2022-12-07T04:45:27;6.30;99.90
47310;DHT22;33046;52.270;6.832;2022-12-07T04:47:34;6.20;99.90
47310;DHT22;33046;52.270;6.832;2022-12-07T04:49:41;6.20;99.90
47310;DHT22;33046;52.270;6.832;2022-12-07T04:51:48;6.30;99.90
47310;DHT22;33046;52.270;6.832;2022-12-07T04:53:56;6.20;99.90
47310;DHT22;33046;52.270;6.832;2022-12-07T04:56:03;6.20;99.90
47310;DHT22;33046;52.270;6.832;2022-12-07T04:58:11;6.20;99.90
47310;DHT22;33046;52.270;6.832;2022-12-07T05:00:18;6.20;99.90
47310;DHT22;33046;52.270;6.832;2022-12-07T05:02:25;6.20;99.90
47310;DHT22;33046;52.270;6.832;2022-12-07T05:04:32;6.20;99.90
47310;DHT22;33046;52.270;6.832;2022-12-07T05:06:38;6.20;99.90
47310;DHT22;33046;52.270;6.832;2022-12-07T05:08:45;6.20;99.90
47310;DHT22;33046;52.270;6.832;2022-12-07T05:10:53;6.10;99.90
47310;DHT22;33046;52.270;6.832;2022-12-07T05:13:00;6.20;99.90
47310;DHT22;33046;52.270;6.832;2022-12-07T05:15:07;6.10;99.90
47310;DHT22;33046;52.270;6.832;2022-12-07T05:17:14;6.10;99.90
47310;DHT22;33046;52.270;6.832;2022-12-07T05:19:21;6.20;99.90
47310;DHT22;33046;52.270;6.832;2022-12-07T05:21:28;6.20;99.90
47310;DHT22;33046;52.270;6.832;2022-12-07T05:23:35;6.10;99.90
47310;DHT22;33046;52.270;6.832;2022-12-07T05:25:41;6.10;99.90
47310;DHT22;33046;52.270;6.832;2022-12-07T05:27:50;6.10;99.90
47310;DHT22;33046;52.270;6.832;2022-12-07T05:29:56;6.10;99.90
47310;DHT22;33046;52.270;6.832;2022-12-07T05:32:03;6.20;99.90
47310;DHT22;33046;52.270;6.832;2022-12-07T05:34:10;6.20;99.90
47310;DHT22;33046;52.270;6.832;2022-12-07T05:36:17;6.10;99.90
47310;DHT22;33046;52.270;6.832;2022-12-07T05:38:24;6.20;99.90
47310;DHT22;33046;52.270;6.832;2022-12-07T05:40:31;6.10;99.90
47310;DHT22;33046;52.270;6.832;2022-12-07T05:42:39;6.10;99.90
47310;DHT22;33046;52.270;6.832;2022-12-07T05:44:47;6.10;99.90
47310;DHT22;33046;52.270;6.832;2022-12-07T05:46:54;6.10;99.90
47310;DHT22;33046;52.270;6.832;2022-12-07T05:49:01;6.10;99.90
47310;DHT22;33046;52.270;6.832;2022-12-07T05:51:07;6.10;99.90
47310;DHT22;33046;52.270;6.832;2022-12-07T05:53:14;6.10;99.90
47310;DHT22;33046;52.270;6.832;2022-12-07T05:55:24;6.10;99.90
47310;DHT22;33046;52.270;6.832;2022-12-07T05:57:31;6.10;99.90
47310;DHT22;33046;52.270;6.832;2022-12-07T05:59:37;6.10;99.90
47310;DHT22;33046;52.270;6.832;2022-12-07T06:01:45;6.00;99.90
47310;DHT22;33046;52.270;6.832;2022-12-07T06:03:52;6.10;99.90
47310;DHT22;33046;52.270;6.832;2022-12-07T06:05:59;6.00;99.90
47310;DHT22;33046;52.270;6.832;2022-12-07T06:08:06;6.10;99.90
47310;DHT22;33046;52.270;6.832;2022-12-07T06:10:13;6.00;99.90
47310;DHT22;33046;52.270;6.832;2022-12-07T06:12:19;6.00;99.90
47310;DHT22;33046;52.270;6.832;2022-12-07T06:14:26;6.00;99.90
47310;DHT22;33046;52.270;6.832;2022-12-07T06:16:33;6.00;99.90
47310;DHT22;33046;52.270;6.832;2022-12-07T06:18:41;6.00;99.90
47310;DHT22;33046;52.270;6.832;2022-12-07T06:20:48;6.00;99.90
47310;DHT22;33046;52.270;6.832;2022-12-07T06:22:55;6.00;99.90
47310;DHT22;33046;52.270;6.832;2022-12-07T06:25:02;6.00;99.90
47310;DHT22;33046;52.270;6.832;2022-12-07T06:27:12;6.00;99.90
47310;DHT22;33046;52.270;6.832;2022-12-07T06:29:19;6.00;99.90
47310;DHT22;33046;52.270;6.832;2022-12-07T06:31:26;5.90;99.90
47310;DHT22;33046;52.270;6.832;2022-12-07T06:33:33;6.00;99.90
47310;DHT22;33046;52.270;6.832;2022-12-07T06:35:41;5.90;99.90
47310;DHT22;33046;52.270;6.832;2022-12-07T06:37:48;6.00;99.90
47310;DHT22;33046;52.270;6.832;2022-12-07T06:39:54;5.90;99.90
47310;DHT22;33046;52.270;6.832;2022-12-07T06:42:01;5.90;99.90
47310;DHT22;33046;52.270;6.832;2022-12-07T06:44:08;5.90;99.90
47310;DHT22;33046;52.270;6.832;2022-12-07T06:46:15;5.90;99.90
47310;DHT22;33046;52.270;6.832;2022-12-07T06:48:22;5.90;99.90
47310;DHT22;33046;52.270;6.832;2022-12-07T06:50:29;5.90;99.90
47310;DHT22;33046;52.270;6.832;2022-12-07T06:52:37;5.90;99.90
47310;DHT22;33046;52.270;6.832;2022-12-07T06:54:44;5.90;99.90
47310;DHT22;33046;52.270;6.832;2022-12-07T06:56:51;5.90;99.90
47310;DHT22;33046;52.270;6.832;2022-12-07T06:58:57;5.90;99.90
47310;DHT22;33046;52.270;6.832;2022-12-07T07:01:08;5.90;99.90
47310;DHT22;33046;52.270;6.832;2022-12-07T07:03:15;5.90;99.90
47310;DHT22;33046;52.270;6.832;2022-12-07T07:05:22;5.90;99.90
47310;DHT22;33046;52.270;6.832;2022-12-07T07:07:29;5.90;99.90
47310;DHT22;33046;52.270;6.832;2022-12-07T07:09:37;5.80;99.90
47310;DHT22;33046;52.270;6.832;2022-12-07T07:11:44;5.90;99.90
47310;DHT22;33046;52.270;6.832;2022-12-07T07:13:50;5.90;99.90
47310;DHT22;33046;52.270;6.832;2022-12-07T07:15:57;5.80;99.90
47310;DHT22;33046;52.270;6.832;2022-12-07T07:18:04;5.80;99.90
47310;DHT22;33046;52.270;6.832;2022-12-07T07:20:13;5.80;99.90
47310;DHT22;33046;52.270;6.832;2022-12-07T07:22:20;5.90;99.90
47310;DHT22;33046;52.270;6.832;2022-12-07T07:24:27;5.80;99.90
47310;DHT22;33046;52.270;6.832;2022-12-07T07:26:35;5.80;99.90
47310;DHT22;33046;52.270;6.832;2022-12-07T07:28:42;5.80;99.90
47310;DHT22;33046;52.270;6.832;2022-12-07T07:30:48;5.80;99.90
47310;DHT22;33046;52.270;6.832;2022-12-07T07:32:56;5.80;99.90
47310;DHT22;33046;52.270;6.832;2022-12-07T07:35:04;5.90;99.90
47310;DHT22;33046;52.270;6.832;2022-12-07T07:37:11;5.80;99.90
47310;DHT22;33046;52.270;6.832;2022-12-07T07:39:18;5.80;99.90
47310;DHT22;33046;52.270;6.832;2022-12-07T07:41:24;5.80;99.90
47310;DHT22;33046;52.270;6.832;2022-12-07T07:43:33;5.80;99.90
47310;DHT22;33046;52.270;6.832;2022-12-07T07:45:40;5.80;99.90
47310;DHT22;33046;52.270;6.832;2022-12-07T07:47:47;5.90;99.90
47310;DHT22;33046;52.270;6.832;2022-12-07T07:49:54;5.90;99.90
47310;DHT22;33046;52.270;6.832;2022-12-07T07:52:01;5.90;99.90
47310;DHT22;33046;52.270;6.832;2022-12-07T07:54:07;5.80;99.90
47310;DHT22;33046;52.270;6.832;2022-12-07T07:56:14;5.90;99.90
47310;DHT22;33046;52.270;6.832;2022-12-07T07:58:21;5.90;99.90
47310;DHT22;33046;52.270;6.832;2022-12-07T08:00:29;5.90;99.90
47310;DHT22;33046;52.270;6.832;2022-12-07T08:02:36;5.90;99.90
47310;DHT22;33046;52.270;6.832;2022-12-07T08:04:43;5.90;99.90
47310;DHT22;33046;52.270;6.832;2022-12-07T08:06:49;5.90;99.90
47310;DHT22;33046;52.270;6.832;2022-12-07T08:08:56;5.90;99.90
47310;DHT22;33046;52.270;6.832;2022-12-07T08:11:05;5.90;99.90
47310;DHT22;33046;52.270;6.832;2022-12-07T08:13:12;5.90;99.90
47310;DHT22;33046;52.270;6.832;2022-12-07T08:15:18;6.00;99.90
47310;DHT22;33046;52.270;6.832;2022-12-07T08:17:26;5.90;99.90
47310;DHT22;33046;52.270;6.832;2022-12-07T08:19:33;6.00;99.90
47310;DHT22;33046;52.270;6.832;2022-12-07T08:21:40;6.00;99.90
47310;DHT22;33046;52.270;6.832;2022-12-07T08:23:47;6.00;99.90
47310;DHT22;33046;52.270;6.832;2022-12-07T08:25:53;6.00;99.90
47310;DHT22;33046;52.270;6.832;2022-12-07T08:28:00;6.00;99.90
47310;DHT22;33046;52.270;6.832;2022-12-07T08:30:08;6.00;99.90
47310;DHT22;33046;52.270;6.832;2022-12-07T08:32:15;6.00;99.90
47310;DHT22;33046;52.270;6.832;2022-12-07T08:34:23;6.00;99.90
47310;DHT22;33046;52.270;6.832;2022-12-07T08:36:30;6.00;99.90
47310;DHT22;33046;52.270;6.832;2022-12-07T08:38:37;6.00;99.90
47310;DHT22;33046;52.270;6.832;2022-12-07T08:40:45;6.00;99.90
47310;DHT22;33046;52.270;6.832;2022-12-07T08:42:51;6.00;99.90
47310;DHT22;33046;52.270;6.832;2022-12-07T08:44:58;6.00;99.90
47310;DHT22;33046;52.270;6.832;2022-12-07T08:47:06;6.10;99.90
47310;DHT22;33046;52.270;6.832;2022-12-07T08:49:16;6.00;99.90
47310;DHT22;33046;52.270;6.832;2022-12-07T08:51:25;6.10;99.90
47310;DHT22;33046;52.270;6.832;2022-12-07T08:53:33;6.10;99.90
47310;DHT22;33046;52.270;6.832;2022-12-07T08:55:41;6.10;99.90
47310;DHT22;33046;52.270;6.832;2022-12-07T08:57:48;6.10;99.90
47310;DHT22;33046;52.270;6.832;2022-12-07T08:59:55;6.10;99.90
47310;DHT22;33046;52.270;6.832;2022-12-07T09:02:02;6.10;99.90
47310;DHT22;33046;52.270;6.832;2022-12-07T09:04:09;6.10;99.90
47310;DHT22;33046;52.270;6.832;2022-12-07T09:06:16;6.10;99.90
47310;DHT22;33046;52.270;6.832;2022-12-07T09:08:28;6.10;99.90
47310;DHT22;33046;52.270;6.832;2022-12-07T09:10:36;6.10;99.90
47310;DHT22;33046;52.270;6.832;2022-12-07T09:12:43;6.20;99.90
47310;DHT22;33046;52.270;6.832;2022-12-07T09:14:49;6.10;99.90
47310;DHT22;33046;52.270;6.832;2022-12-07T09:17:05;6.20;99.90
47310;DHT22;33046;52.270;6.832;2022-12-07T09:19:12;6.20;99.90
47310;DHT22;33046;52.270;6.832;2022-12-07T09:21:19;6.30;99.90
47310;DHT22;33046;52.270;6.832;2022-12-07T09:23:27;6.30;99.90
47310;DHT22;33046;52.270;6.832;2022-12-07T09:25:34;6.40;99.90
47310;DHT22;33046;52.270;6.832;2022-12-07T09:27:41;6.40;99.90
47310;DHT22;33046;52.270;6.832;2022-12-07T09:29:48;6.40;99.90
47310;DHT22;33046;52.270;6.832;2022-12-07T09:31:55;6.40;99.90
47310;DHT22;33046;52.270;6.832;2022-12-07T09:34:01;6.40;99.90
47310;DHT22;33046;52.270;6.832;2022-12-07T09:36:08;6.40;99.90
47310;DHT22;33046;52.270;6.832;2022-12-07T09:38:16;6.40;99.90
47310;DHT22;33046;52.270;6.832;2022-12-07T09:40:24;6.40;99.90
47310;DHT22;33046;52.270;6.832;2022-12-07T09:42:35;6.40;99.90
47310;DHT22;33046;52.270;6.832;2022-12-07T09:44:42;6.40;99.90
47310;DHT22;33046;52.270;6.832;2022-12-07T09:46:49;6.40;99.90
47310;DHT22;33046;52.270;6.832;2022-12-07T09:48:56;6.40;99.90
47310;DHT22;33046;52.270;6.832;2022-12-07T09:51:13;6.40;99.90
47310;DHT22;33046;52.270;6.832;2022-12-07T09:53:27;6.50;99.90
47310;DHT22;33046;52.270;6.832;2022-12-07T09:55:36;6.50;99.90
47310;DHT22;33046;52.270;6.832;2022-12-07T09:57:44;6.50;99.90
47310;DHT22;33046;52.270;6.832;2022-12-07T09:59:51;6.50;99.90
47310;DHT22;33046;52.270;6.832;2022-12-07T10:02:22;6.50;99.90
47310;DHT22;33046;52.270;6.832;2022-12-07T10:04:29;6.50;99.90
47310;DHT22;33046;52.270;6.832;2022-12-07T10:06:37;6.50;99.90
47310;DHT22;33046;52.270;6.832;2022-12-07T10:08:43;6.50;99.90
47310;DHT22;33046;52.270;6.832;2022-12-07T10:10:53;6.50;99.90
47310;DHT22;33046;52.270;6.832;2022-12-07T10:13:02;6.60;99.90
47310;DHT22;33046;52.270;6.832;2022-12-07T10:15:09;6.60;99.90
47310;DHT22;33046;52.270;6.832;2022-12-07T10:17:31;6.60;99.90
47310;DHT22;33046;52.270;6.832;2022-12-07T10:19:38;6.60;99.90
47310;DHT22;33046;52.270;6.832;2022-12-07T10:22:00;6.70;99.90
47310;DHT22;33046;52.270;6.832;2022-12-07T10:24:14;6.70;99.90
47310;DHT22;33046;52.270;6.832;2022-12-07T10:26:31;6.70;99.90
47310;DHT22;33046;52.270;6.832;2022-12-07T10:28:38;6.80;99.90
47310;DHT22;33046;52.270;6.832;2022-12-07T10:30:50;6.70;99.90
47310;DHT22;33046;52.270;6.832;2022-12-07T10:32:57;6.80;99.90
47310;DHT22;33046;52.270;6.832;2022-12-07T10:35:25;6.70;99.90
47310;DHT22;33046;52.270;6.832;2022-12-07T10:37:40;6.80;99.90
47310;DHT22;33046;52.270;6.832;2022-12-07T10:39:49;6.80;99.90
47310;DHT22;33046;52.270;6.832;2022-12-07T10:41:59;6.80;99.90
47310;DHT22;33046;52.270;6.832;2022-12-07T10:44:21;6.80;99.90
47310;DHT22;33046;52.270;6.832;2022-12-07T10:46:50;6.80;99.90
47310;DHT22;33046;52.270;6.832;2022-12-07T10:49:07;6.90;99.90
47310;DHT22;33046;52.270;6.832;2022-12-07T10:51:24;6.90;99.90
47310;DHT22;33046;52.270;6.832;2022-12-07T10:53:40;6.80;99.90
47310;DHT22;33046;52.270;6.832;2022-12-07T10:56:00;6.90;99.90
47310;DHT22;33046;52.270;6.832;2022-12-07T10:58:37;6.90;99.90
47310;DHT22;33046;52.270;6.832;2022-12-07T11:00:56;7.00;99.90
47310;DHT22;33046;52.270;6.832;2022-12-07T11:03:20;7.00;99.90
47310;DHT22;33046;52.270;6.832;2022-12-07T11:05:35;7.10;99.90
47310;DHT22;33046;52.270;6.832;2022-12-07T11:07:53;7.10;99.90
47310;DHT22;33046;52.270;6.832;2022-12-07T11:10:08;7.20;99.90
47310;DHT22;33046;52.270;6.832;2022-12-07T11:12:29;7.20;99.90
47310;DHT22;33046;52.270;6.832;2022-12-07T11:14:46;7.20;99.90
47310;DHT22;33046;52.270;6.832;2022-12-07T11:17:01;7.30;99.90
47310;DHT22;33046;52.270;6.832;2022-12-07T11:19:39;7.30;99.90
47310;DHT22;33046;52.270;6.832;2022-12-07T11:21:55;7.40;99.90
47310;DHT22;33046;52.270;6.832;2022-12-07T11:24:08;7.40;99.90
47310;DHT22;33046;52.270;6.832;2022-12-07T11:26:24;7.40;99.90
47310;DHT22;33046;52.270;6.832;2022-12-07T11:28:47;7.40;99.90
47310;DHT22;33046;52.270;6.832;2022-12-07T11:31:11;7.40;99.90
47310;DHT22;33046;52.270;6.832;2022-12-07T11:33:24;7.50;99.90
47310;DHT22;33046;52.270;6.832;2022-12-07T11:35:42;7.50;99.90
47310;DHT22;33046;52.270;6.832;2022-12-07T11:37:56;7.50;99.90
47310;DHT22;33046;52.270;6.832;2022-12-07T11:40:08;7.50;99.90
47310;DHT22;33046;52.270;6.832;2022-12-07T11:42:22;7.50;99.90
47310;DHT22;33046;52.270;6.832;2022-12-07T11:44:34;7.50;99.90
47310;DHT22;33046;52.270;6.832;2022-12-07T11:46:49;7.50;99.90
47310;DHT22;33046;52.270;6.832;2022-12-07T11:49:03;7.50;99.90
47310;DHT22;33046;52.270;6.832;2022-12-07T11:51:12;7.50;99.90
47310;DHT22;33046;52.270;6.832;2022-12-07T11:53:22;7.50;99.90
47310;DHT22;33046;52.270;6.832;2022-12-07T11:55:40;7.40;99.90
47310;DHT22;33046;52.270;6.832;2022-12-07T11:57:53;7.50;99.90
47310;DHT22;33046;52.270;6.832;2022-12-07T12:00:12;7.50;99.90
47310;DHT22;33046;52.270;6.832;2022-12-07T12:02:24;7.40;99.90
47310;DHT22;33046;52.270;6.832;2022-12-07T12:04:34;7.50;99.90
47310;DHT22;33046;52.270;6.832;2022-12-07T12:06:45;7.50;99.90
47310;DHT22;33046;52.270;6.832;2022-12-07T12:08:57;7.50;99.90
47310;DHT22;33046;52.270;6.832;2022-12-07T12:11:39;7.50;99.90
47310;DHT22;33046;52.270;6.832;2022-12-07T12:14:22;7.60;99.90
47310;DHT22;33046;52.270;6.832;2022-12-07T12:16:52;7.60;99.90
47310;DHT22;33046;52.270;6.832;2022-12-07T12:19:21;7.60;99.90
47310;DHT22;33046;52.270;6.832;2022-12-07T12:21:29;7.70;99.90
47310;DHT22;33046;52.270;6.832;2022-12-07T12:23:40;7.70;99.90
47310;DHT22;33046;52.270;6.832;2022-12-07T12:25:49;7.80;99.90
47310;DHT22;33046;52.270;6.832;2022-12-07T12:27:58;7.70;99.90
47310;DHT22;33046;52.270;6.832;2022-12-07T12:30:23;7.70;99.90
47310;DHT22;33046;52.270;6.832;2022-12-07T12:32:36;7.80;99.90
47310;DHT22;33046;52.270;6.832;2022-12-07T12:35:22;7.80;99.90
47310;DHT22;33046;52.270;6.832;2022-12-07T12:37:41;7.70;99.90
47310;DHT22;33046;52.270;6.832;2022-12-07T12:40:12;7.80;99.90
47310;DHT22;33046;52.270;6.832;2022-12-07T12:42:44;7.80;99.90
47310;DHT22;33046;52.270;6.832;2022-12-07T12:45:19;7.80;99.90
47310;DHT22;33046;52.270;6.832;2022-12-07T12:47:51;7.80;99.90
47310;DHT22;33046;52.270;6.832;2022-12-07T12:50:20;7.90;99.90
47310;DHT22;33046;52.270;6.832;2022-12-07T12:52:52;7.80;99.90
47310;DHT22;33046;52.270;6.832;2022-12-07T12:55:11;7.80;99.90
47310;DHT22;33046;52.270;6.832;2022-12-07T12:57:24;7.70;99.90
47310;DHT22;33046;52.270;6.832;2022-12-07T12:59:33;7.80;99.90
47310;DHT22;33046;52.270;6.832;2022-12-07T13:01:42;7.80;99.90
47310;DHT22;33046;52.270;6.832;2022-12-07T13:03:53;7.80;99.90
47310;DHT22;33046;52.270;6.832;2022-12-07T13:06:19;7.80;99.90
47310;DHT22;33046;52.270;6.832;2022-12-07T13:08:26;7.80;99.90
47310;DHT22;33046;52.270;6.832;2022-12-07T13:10:42;7.80;99.90
47310;DHT22;33046;52.270;6.832;2022-12-07T13:12:56;7.80;99.90
47310;DHT22;33046;52.270;6.832;2022-12-07T13:15:03;7.80;99.90
47310;DHT22;33046;52.270;6.832;2022-12-07T13:17:11;7.80;99.90
47310;DHT22;33046;52.270;6.832;2022-12-07T13:22:39;7.80;99.90
47310;DHT22;33046;52.270;6.832;2022-12-07T13:24:47;7.80;99.90
47310;DHT22;33046;52.270;6.832;2022-12-07T13:26:56;7.80;99.90
47310;DHT22;33046;52.270;6.832;2022-12-07T13:29:09;7.80;99.90
47310;DHT22;33046;52.270;6.832;2022-12-07T13:31:25;7.80;99.90
47310;DHT22;33046;52.270;6.832;2022-12-07T13:33:36;7.70;99.90
47310;DHT22;33046;52.270;6.832;2022-12-07T13:35:43;7.70;99.90
47310;DHT22;33046;52.270;6.832;2022-12-07T13:37:51;7.70;99.90
47310;DHT22;33046;52.270;6.832;2022-12-07T13:39:59;7.70;99.90
47310;DHT22;33046;52.270;6.832;2022-12-07T13:42:15;7.70;99.90
47310;DHT22;33046;52.270;6.832;2022-12-07T13:44:27;7.70;99.90
47310;DHT22;33046;52.270;6.832;2022-12-07T13:46:44;7.70;99.90
47310;DHT22;33046;52.270;6.832;2022-12-07T13:48:53;7.60;99.90
47310;DHT22;33046;52.270;6.832;2022-12-07T13:51:02;7.70;99.90
47310;DHT22;33046;52.270;6.832;2022-12-07T13:53:13;7.60;99.90
47310;DHT22;33046;52.270;6.832;2022-12-07T13:55:20;7.60;99.90
47310;DHT22;33046;52.270;6.832;2022-12-07T13:57:28;7.60;99.90
47310;DHT22;33046;52.270;6.832;2022-12-07T13:59:36;7.60;99.90
47310;DHT22;33046;52.270;6.832;2022-12-07T14:01:45;7.60;99.90